Gravon, das Spielerparadies Deutsche Version
Nick:
Password:
Register here

Home :: FAQ :: Getting started :: Launch Gravon :: Community :: Commands :: Team
:: Downloads
:: Gravopedia
:: Launch Gravon with Java
(for experts, Java required)

Jumbo Logo
Stratego-Logo StraDev Logo

Usage :: Loading/Saving setups :: Original game rules :: ISF more squares rule :: Additional options
Statistics :: StraDoS2 :: Battle results :: Player vs. player :: X-Files
Classic Stratego rating/ranking :: Classic Stratego challenge rating/ranking 2022 :: Personal challenge ranking statistics
Barrage Stratego rating/ranking :: Duell Stratego rating/ranking :: UL Stratego rating/ranking

Observed winning expactancy vs. opponent's rating, Kleier's rating

(x: Rating, 800-1800; y: winning expactancy, 0-1)
Red: Unfiltered, classes a 40 rating points
Blue/green: GAUSS filtered, sigma = 39
Gray: ELO's expected winning probability based on calculated Kleier rating
Observed winning expactancy vs. opponent's rating, WSC rating

Here again:
Gray: ELO's expected winning probability based on calculated WSC rating

Number of games vs. rating of opponents
The bars show the number of games played against opponents of a particular rating range, from 800 to 2000 in steps of 40 points

Statistics for maartenleysen

Last update (MEST): 2022-05-23 16:45


TimeOpponentOpponents rating (Kleier)Rating difference (Kleier)Opponents rating (WSC)Rating difference (WSC)Result
2021-01-01 22:41beastly1231493+3151786+496loss
2021-01-01 23:01beastly1231493+3151786+496loss
2021-01-02 17:14piff25071449+2711623+333loss
2021-01-02 19:12beastly1231493+3151786+496loss
2021-01-02 19:42beastly1231493+3151786+496loss
2021-01-02 20:42nikko1401+2231488+198loss
2021-01-03 20:56mirmidonas1525+3461655+365win
2021-01-04 19:20rave551464+2861578+288loss
2021-01-04 19:36rave551464+2861578+288loss
2021-01-04 19:54rave551464+2861578+288loss
2021-01-04 20:29knickles1448+2691561+271loss
2021-01-04 20:42jackie021472+2931722+432loss
2021-01-04 21:11jackie021472+2931722+432win
2021-01-04 21:29jackie021472+2931722+432loss
2021-01-05 20:28zach211741+5632140+850loss
2021-01-05 20:48tomba1598+4191849+559loss
2021-01-05 21:02mirmidonas1525+3461655+365loss
2021-01-05 21:32garulfo1680+5011958+668loss
2021-01-07 16:15dutch1650+4721853+563loss
2021-01-07 17:03maxroelofs1709+5301876+586loss
2021-01-07 19:19qonquerer_pst1557+3781517+227loss
2021-01-07 19:34robna1283+1051507+217loss
2021-01-07 20:18ironshield1686+5071967+677loss
2021-01-08 16:16knickles1448+2691561+271draw
2021-01-08 18:42iljoesjin1333+1541401+111win
2021-01-08 18:57iljoesjin1333+1541401+111loss
2021-01-08 19:30iljoesjin1333+1541401+111loss
2021-01-13 20:24robna1283+1051507+217loss
2021-01-15 16:59swordfish1484+3061725+435win
2021-01-15 17:18swordfish1484+3061725+435loss
2021-01-15 17:39swordfish1484+3061725+435loss
2021-01-16 19:06jjbb1431439+2601580+290loss
2021-01-17 15:46jossy1451+2721515+225win
2021-01-17 15:58jossy1451+2721515+225loss
2021-01-17 16:07jossy1451+2721515+225win
2021-01-23 12:26warlock1635+4561898+608loss
2021-01-23 13:53templaterex1229+511363+73loss
2021-01-23 14:23kambia1329+1501421+131loss
2021-01-23 15:53jensneuij1302+1231564+274win
2021-01-23 17:13lodewijk14de987-1921196-94win
2021-02-19 22:32missouri1143-361384+94win
2021-02-19 23:34missouri1143-361384+94loss
2021-02-20 11:36olafthueringer1439+2601614+324loss
2021-02-20 12:32garulfo1680+5011958+668loss
2021-02-20 12:45jjbb1431439+2601580+290loss
2021-02-21 18:59ironshield1686+5071967+677loss
2021-02-22 16:17tomba1598+4191849+559loss
2021-02-22 16:56tomba1598+4191849+559loss
2021-02-22 18:15pythagorean_iv1644+4661871+581loss
2021-02-22 18:47warlock1635+4561898+608loss
2021-02-24 15:49rave551464+2861578+288loss
2021-02-24 16:08nikko1401+2231488+198loss
2021-02-24 16:25wnehme1594+4151799+509loss
2021-02-26 18:21mojo19671568+3891770+480loss
2021-02-26 18:35mh1811660+4811801+511loss
2021-02-26 18:59aqualung1369+1901443+153loss
2021-02-26 19:25jackie021472+2931722+432loss
2021-03-07 19:25swordfish1484+3061725+435loss
2021-03-13 16:00lodewijk14de987-1921196-94win
2021-03-16 19:21iljoesjin1333+1541401+111loss
2021-03-16 19:47iljoesjin1333+1541401+111loss
2021-03-16 20:01tomba1598+4191849+559loss
2021-03-20 11:54panther1614+4351823+533loss
2021-03-20 12:40kostasvin1273+941381+91win
2021-03-20 14:24wnehme1594+4151799+509loss
2021-03-20 15:07vertigo1413+2341509+219loss
2021-03-20 16:25lodewijk14de987-1921196-94win
2021-03-21 11:53tomba1598+4191849+559loss
2021-03-21 18:33Prop1601314+1361411+121loss
2021-03-22 15:45lodewijk14de987-1921196-94loss
2021-03-25 20:28Prop1601314+1361411+121win
2021-03-28 12:40iljoesjin1333+1541401+111loss
2021-03-29 14:32lodewijk14de987-1921196-94win
2021-04-05 17:23rave551464+2861578+288loss
2021-04-05 18:18rave551464+2861578+288loss
2021-04-05 18:58ironshield1686+5071967+677loss
2021-04-09 16:57wnehme1594+4151799+509loss
2021-04-09 17:39lodewijk14de987-1921196-94win
2021-04-09 20:53wnehme1594+4151799+509loss
2021-04-16 17:12lodewijk14de987-1921196-94win
2021-04-16 18:28iljoesjin1333+1541401+111loss
2021-04-16 18:58iljoesjin1333+1541401+111draw
2021-04-16 20:33wnehme1594+4151799+509loss
2021-04-23 17:44lodewijk14de987-1921196-94win
2021-04-23 18:20wnehme1594+4151799+509loss
2021-05-02 17:48knickles1448+2691561+271loss
2021-05-21 16:28ruben871628+4491757+467loss
2021-05-21 17:28lodewijk14de987-1921196-94win
2021-05-21 20:33vertigo1413+2341509+219loss
2021-05-28 16:43lodewijk14de987-1921196-94win
2021-05-30 11:28warlock1635+4561898+608loss
2021-05-30 12:08henry1659+4801853+563loss
2021-05-30 13:20lodewijk14de987-1921196-94win
2021-05-30 14:57kambia1329+1501421+131loss
2021-05-30 16:24iljoesjin1333+1541401+111draw
2021-06-04 16:59lodewijk14de987-1921196-94loss
2021-07-17 19:03henry1659+4801853+563win
2021-07-17 20:12man_drake1197+181378+88win
2021-08-15 17:35robna1283+1051507+217loss
2021-08-21 18:27blacksheep1413+2341476+186loss
2021-11-24 16:40beastly1231493+3151786+496loss
2021-11-24 16:58beastly1231493+3151786+496loss
2021-12-07 17:21rave551464+2861578+288loss
2021-12-16 16:56jossy1451+2721515+225win

Hier geht es in die Welt von Gravon.



Valid HTML 4.0! Webmaster Terms of service :: Impressum